Time;durP1;ratioP1;P1;durP2;ratioP2;P2;SDS_P1;SDS_P2;PMS_P1;PMS_P2;Temp;Humidity;BMP_temperature;BMP_pressure;BME280_temperature;BME280_humidity;BME280_pressure;Samples;Min_cycle;Max_cycle;Signal;HPM_P1;HPM_P2
2024/02/03 00:01:27;;;;;;;2.85;1.92;;;12.80;54.60;;;;;;5035594;28;20422;-60
2024/02/03 00:03:56;;;;;;;3.70;1.95;;;12.70;54.50;;;;;;5033260;28;20056;-60
2024/02/03 00:06:27;;;;;;;11.48;3.58;;;12.60;54.50;;;;;;5034677;28;20049;-70
2024/02/03 00:08:56;;;;;;;7.57;1.98;;;12.50;54.60;;;;;;5037493;28;20534;-61
2024/02/03 00:11:25;;;;;;;5.97;1.67;;;12.50;54.60;;;;;;5041503;28;20664;-62
2024/02/03 00:13:58;;;;;;;4.22;2.15;;;12.40;54.70;;;;;;5040406;28;20123;-69
2024/02/03 00:16:34;;;;;;;2.30;1.73;;;12.30;54.80;;;;;;5036624;28;20056;-60
2024/02/03 00:19:06;;;;;;;6.13;1.48;;;12.20;54.80;;;;;;5028905;28;20487;-59
2024/02/03 00:21:36;;;;;;;2.13;1.30;;;12.20;54.80;;;;;;5041711;28;20049;-60
2024/02/03 00:24:05;;;;;;;6.28;2.03;;;12.10;55.00;;;;;;5023125;28;20279;-60
2024/02/03 00:26:38;;;;;;;3.00;1.42;;;12.20;55.20;;;;;;5035801;28;20509;-65
2024/02/03 00:29:07;;;;;;;2.63;1.30;;;12.30;55.20;;;;;;5038901;28;20213;-63
2024/02/03 00:31:38;;;;;;;2.15;1.23;;;12.40;55.20;;;;;;5040751;28;20115;-60
2024/02/03 00:34:06;;;;;;;6.38;1.02;;;12.50;55.10;;;;;;5037178;28;20072;-61
2024/02/03 00:36:37;;;;;;;1.67;0.95;;;12.50;54.90;;;;;;5034214;28;20044;-61
2024/02/03 00:39:06;;;;;;;4.15;2.03;;;12.60;55.00;;;;;;5054224;28;20064;-60
2024/02/03 00:41:36;;;;;;;11.02;3.75;;;12.60;54.90;;;;;;5032847;28;20521;-74
2024/02/03 00:44:06;;;;;;;3.97;1.20;;;12.70;54.90;;;;;;5018963;28;20290;-62
2024/02/03 00:46:37;;;;;;;1.92;1.15;;;12.80;54.90;;;;;;5006910;28;20049;-59
2024/02/03 00:49:10;;;;;;;4.45;1.50;;;12.80;54.70;;;;;;5018927;28;21809;-62
2024/02/03 00:51:40;;;;;;;1.48;1.10;;;12.80;54.70;;;;;;5020995;28;20053;-60
2024/02/03 00:54:09;;;;;;;1.52;1.05;;;12.90;54.70;;;;;;5037308;28;20511;-59
2024/02/03 00:56:38;;;;;;;0.70;0.70;;;12.90;54.60;;;;;;5014009;28;20053;-60
2024/02/03 00:59:06;;;;;;;0.80;0.80;;;12.90;54.60;;;;;;5018448;28;20140;-61
2024/02/03 01:01:37;;;;;;;2.35;1.23;;;13.00;54.70;;;;;;5014100;28;21098;-60
2024/02/03 01:04:08;;;;;;;2.75;1.77;;;13.10;54.70;;;;;;5008270;28;20049;-60
2024/02/03 01:06:37;;;;;;;7.47;2.60;;;13.20;54.60;;;;;;5010601;28;20052;-61
2024/02/03 01:09:06;;;;;;;29.85;8.57;;;13.30;54.50;;;;;;4999893;28;20514;-61
2024/02/03 01:11:36;;;;;;;10.25;2.80;;;13.40;54.50;;;;;;5012508;28;20106;-60
2024/02/03 01:14:05;;;;;;;12.93;3.50;;;13.50;54.30;;;;;;4999607;28;20266;-60
2024/02/03 01:16:33;;;;;;;5.90;1.20;;;13.60;54.20;;;;;;5034021;28;20085;-60
2024/02/03 01:19:04;;;;;;;4.85;1.13;;;13.70;54.20;;;;;;5034991;28;20118;-59
2024/02/03 01:21:32;;;;;;;3.83;1.90;;;13.70;54.10;;;;;;5030930;28;20547;-60
2024/02/03 01:24:01;;;;;;;4.38;1.38;;;13.70;54.10;;;;;;5035545;28;20083;-60
2024/02/03 01:26:29;;;;;;;2.72;1.20;;;13.70;54.00;;;;;;5033915;28;20572;-60
2024/02/03 01:28:58;;;;;;;4.40;1.65;;;13.70;54.00;;;;;;5038607;28;20055;-62
2024/02/03 01:31:26;;;;;;;2.15;1.27;;;13.80;54.00;;;;;;5030768;28;20057;-62
2024/02/03 01:33:55;;;;;;;2.53;1.40;;;13.70;54.00;;;;;;5035627;28;20053;-62
2024/02/03 01:36:25;;;;;;;1.73;1.20;;;13.70;54.00;;;;;;5038747;28;20048;-61
2024/02/03 01:38:53;;;;;;;1.83;1.20;;;13.70;54.00;;;;;;5020625;28;20781;-61
2024/02/03 01:41:22;;;;;;;4.22;1.50;;;13.70;53.90;;;;;;5012980;28;20102;-61
2024/02/03 01:43:50;;;;;;;7.13;1.98;;;13.60;53.90;;;;;;5010306;28;20148;-60
2024/02/03 01:46:19;;;;;;;2.42;1.30;;;13.60;54.00;;;;;;5015580;28;20063;-59
2024/02/03 01:48:48;;;;;;;5.45;1.60;;;13.60;54.00;;;;;;5015336;28;20132;-61
2024/02/03 01:51:19;;;;;;;1.38;1.08;;;13.50;54.00;;;;;;5039599;28;20130;-60
2024/02/03 01:53:49;;;;;;;1.02;0.90;;;13.50;54.10;;;;;;5018855;28;20122;-59
2024/02/03 01:56:19;;;;;;;7.75;1.50;;;13.40;54.10;;;;;;5034476;28;20495;-60
2024/02/03 01:58:47;;;;;;;6.75;2.05;;;13.40;54.20;;;;;;5034238;28;20057;-66
2024/02/03 02:01:16;;;;;;;4.18;1.58;;;13.40;54.10;;;;;;5038803;28;20500;-61
2024/02/03 02:03:45;;;;;;;2.03;1.23;;;13.40;54.10;;;;;;5030791;28;20144;-60
2024/02/03 02:06:14;;;;;;;4.18;1.40;;;13.40;54.40;;;;;;5029628;28;21687;-60
2024/02/03 02:08:43;;;;;;;3.78;1.52;;;13.40;54.20;;;;;;5031373;28;20048;-61
2024/02/03 02:11:13;;;;;;;2.75;1.65;;;13.40;54.10;;;;;;5037308;28;20049;-64
2024/02/03 02:13:42;;;;;;;3.58;1.80;;;13.40;54.00;;;;;;5030820;28;20041;-60
2024/02/03 02:16:10;;;;;;;4.63;1.80;;;13.40;54.00;;;;;;5016912;28;20065;-62
2024/02/03 02:18:39;;;;;;;20.15;5.55;;;13.30;53.90;;;;;;5036835;28;20049;-60
2024/02/03 02:21:09;;;;;;;5.00;2.20;;;13.20;53.90;;;;;;5030708;28;20106;-60
2024/02/03 02:23:37;;;;;;;7.43;2.00;;;13.10;53.90;;;;;;5033002;28;20056;-61
2024/02/03 02:26:06;;;;;;;20.67;4.07;;;12.90;53.90;;;;;;5035715;28;20064;-59
2024/02/03 02:28:35;;;;;;;8.23;3.42;;;12.70;54.00;;;;;;5030608;28;20053;-60
2024/02/03 02:31:04;;;;;;;8.20;3.53;;;12.60;54.10;;;;;;5016475;28;20064;-59
2024/02/03 02:33:32;;;;;;;4.03;2.30;;;12.40;54.20;;;;;;5012177;28;20048;-61
2024/02/03 02:36:02;;;;;;;3.95;1.85;;;12.30;54.30;;;;;;4995386;28;20081;-60
2024/02/03 02:38:32;;;;;;;5.72;2.38;;;12.20;54.40;;;;;;5034881;28;20502;-60
2024/02/03 02:41:00;;;;;;;3.10;1.67;;;12.10;54.40;;;;;;5025730;28;20048;-60
2024/02/03 02:43:29;;;;;;;3.60;1.70;;;12.00;54.60;;;;;;5012265;28;20048;-60
2024/02/03 02:45:58;;;;;;;5.18;1.65;;;11.90;54.60;;;;;;5011918;28;20061;-60
2024/02/03 02:48:26;;;;;;;5.35;2.15;;;11.80;54.60;;;;;;5014999;28;20048;-60
2024/02/03 02:50:55;;;;;;;3.03;1.52;;;11.60;54.60;;;;;;5013357;28;20057;-60
2024/02/03 02:53:25;;;;;;;9.60;2.05;;;11.50;54.70;;;;;;5030681;28;20140;-61
2024/02/03 02:55:55;;;;;;;6.90;2.30;;;11.40;54.80;;;;;;5031430;28;20135;-60
2024/02/03 02:58:27;;;;;;;5.10;1.70;;;11.40;54.90;;;;;;5031804;28;20076;-60
2024/02/03 03:00:56;;;;;;;3.42;1.70;;;11.30;55.00;;;;;;5024840;28;20545;-61
2024/02/03 03:03:24;;;;;;;6.15;1.85;;;11.20;55.10;;;;;;4974479;28;20061;-60
2024/02/03 03:05:53;;;;;;;4.15;2.50;;;11.10;55.20;;;;;;4988495;28;20152;-59
2024/02/03 03:08:21;;;;;;;4.57;1.88;;;11.00;55.10;;;;;;4987681;28;20088;-59
2024/02/03 03:10:50;;;;;;;3.20;2.00;;;11.00;55.20;;;;;;4974313;28;20561;-59
2024/02/03 03:13:20;;;;;;;3.65;1.73;;;10.90;55.20;;;;;;4901025;28;20785;-60
2024/02/03 03:15:50;;;;;;;2.97;1.88;;;10.90;55.30;;;;;;4915872;28;20061;-59
2024/02/03 03:18:19;;;;;;;5.78;1.95;;;11.00;55.40;;;;;;4933848;28;20053;-60
2024/02/03 03:20:49;;;;;;;8.35;2.65;;;10.90;55.20;;;;;;4911580;28;22064;-59
2024/02/03 03:23:17;;;;;;;7.13;1.92;;;10.90;55.20;;;;;;4916561;28;20386;-60
2024/02/03 03:25:46;;;;;;;3.47;1.98;;;10.90;55.20;;;;;;4935725;28;20429;-57
2024/02/03 03:28:15;;;;;;;5.88;2.30;;;10.80;55.30;;;;;;4920657;28;20060;-60
2024/02/03 03:30:46;;;;;;;3.88;1.80;;;10.80;55.30;;;;;;4907402;28;20417;-59
2024/02/03 03:33:16;;;;;;;4.03;2.15;;;10.80;55.30;;;;;;4916801;28;20506;-59
2024/02/03 03:35:45;;;;;;;5.25;2.85;;;10.80;55.40;;;;;;4904023;28;20458;-60
2024/02/03 03:38:14;;;;;;;3.25;2.00;;;10.70;55.40;;;;;;4915793;28;21239;-59
2024/02/03 03:40:43;;;;;;;14.48;2.65;;;10.70;55.40;;;;;;4918402;28;21422;-61
2024/02/03 03:43:13;;;;;;;5.78;1.80;;;10.70;56.00;;;;;;4924618;28;20045;-58
2024/02/03 03:45:42;;;;;;;3.25;1.75;;;10.70;55.50;;;;;;4921920;28;20106;-59
2024/02/03 03:48:13;;;;;;;15.75;2.08;;;10.70;55.50;;;;;;4928295;28;20079;-59
2024/02/03 03:50:43;;;;;;;2.78;1.88;;;10.70;55.50;;;;;;4944673;28;20426;-59
2024/02/03 03:53:12;;;;;;;4.22;1.95;;;10.60;56.10;;;;;;4920786;28;20061;-60
2024/02/03 03:55:41;;;;;;;2.53;1.40;;;10.60;55.50;;;;;;4927192;28;20171;-58
2024/02/03 03:58:11;;;;;;;4.80;2.13;;;10.60;55.50;;;;;;4925240;28;20083;-60
2024/02/03 04:00:40;;;;;;;3.47;2.22;;;10.50;55.60;;;;;;4943527;28;20041;-59
2024/02/03 04:03:09;;;;;;;19.00;2.00;;;10.50;55.60;;;;;;4935943;28;20137;-59
2024/02/03 04:05:39;;;;;;;2.25;1.70;;;10.50;55.80;;;;;;4939534;28;20126;-58
2024/02/03 04:08:10;;;;;;;3.72;1.92;;;10.50;56.00;;;;;;4941478;28;20056;-59
2024/02/03 04:10:39;;;;;;;14.35;1.70;;;10.60;56.10;;;;;;4944935;28;20495;-59
2024/02/03 04:13:08;;;;;;;28.92;8.50;;;10.70;56.10;;;;;;4952522;28;20057;-63
2024/02/03 04:15:37;;;;;;;4.38;2.15;;;10.80;56.10;;;;;;4939804;28;20427;-59
2024/02/03 04:18:06;;;;;;;5.90;2.25;;;10.90;56.00;;;;;;4961186;28;20053;-78
2024/02/03 04:20:35;;;;;;;14.43;4.82;;;11.10;55.90;;;;;;4956346;28;20459;-75
2024/02/03 04:23:05;;;;;;;4.63;2.10;;;11.20;55.90;;;;;;4971469;28;20060;-60
2024/02/03 04:25:33;;;;;;;5.60;2.20;;;11.20;55.70;;;;;;4985154;28;20060;-59
2024/02/03 04:28:02;;;;;;;9.68;3.42;;;11.20;55.60;;;;;;4995439;28;20060;-61
2024/02/03 04:30:30;;;;;;;5.10;2.97;;;11.20;55.70;;;;;;4985382;28;20053;-60
2024/02/03 04:32:58;;;;;;;4.78;2.75;;;11.10;55.60;;;;;;4989994;28;20061;-58
2024/02/03 04:35:27;;;;;;;10.60;3.03;;;11.10;55.70;;;;;;4989748;28;20068;-60
2024/02/03 04:38:01;;;;;;;5.28;2.40;;;11.10;55.80;;;;;;4988280;28;20139;-59
2024/02/03 04:40:32;;;;;;;4.50;2.00;;;11.00;55.70;;;;;;4978927;28;20061;-59
2024/02/03 04:43:02;;;;;;;6.43;3.13;;;10.90;55.70;;;;;;4994005;28;20118;-59
2024/02/03 04:45:30;;;;;;;3.28;2.20;;;10.80;55.70;;;;;;4989199;28;20180;-61
2024/02/03 04:47:59;;;;;;;7.35;1.60;;;10.80;55.90;;;;;;4988759;28;20084;-59
2024/02/03 04:50:28;;;;;;;6.38;2.03;;;10.80;55.90;;;;;;4984089;28;20049;-60
2024/02/03 04:52:57;;;;;;;3.35;1.85;;;10.80;55.90;;;;;;4991801;28;20054;-62
2024/02/03 04:55:25;;;;;;;5.40;2.90;;;10.80;56.50;;;;;;4992032;28;20628;-60
2024/02/03 04:57:55;;;;;;;4.93;2.00;;;10.80;56.00;;;;;;4994093;28;20084;-59
2024/02/03 05:00:24;;;;;;;5.65;2.40;;;10.80;56.00;;;;;;4991089;28;20831;-60
2024/02/03 05:02:52;;;;;;;3.05;2.08;;;10.80;56.10;;;;;;4990290;28;20068;-60
2024/02/03 05:05:21;;;;;;;6.95;2.28;;;10.80;56.10;;;;;;4972219;28;20048;-59
2024/02/03 05:07:50;;;;;;;1.98;1.48;;;10.80;56.10;;;;;;4974964;28;20069;-59
2024/02/03 05:10:20;;;;;;;5.68;1.80;;;10.80;56.10;;;;;;4966967;28;20280;-60
2024/02/03 05:12:52;;;;;;;3.35;1.85;;;10.80;56.10;;;;;;4960784;28;20609;-60
2024/02/03 05:15:22;;;;;;;7.43;2.30;;;10.70;56.10;;;;;;4967502;28;20632;-61
2024/02/03 05:17:51;;;;;;;5.03;2.47;;;10.80;56.50;;;;;;4979081;28;20313;-59
2024/02/03 05:20:19;;;;;;;8.25;2.97;;;10.80;56.20;;;;;;4995967;28;20124;-60
2024/02/03 05:22:48;;;;;;;5.95;3.15;;;10.80;56.30;;;;;;4989071;28;20073;-59
2024/02/03 05:25:17;;;;;;;8.63;3.08;;;10.90;56.30;;;;;;4995870;28;20774;-61
2024/02/03 05:27:46;;;;;;;14.85;4.00;;;10.90;56.30;;;;;;4990412;28;20132;-60
2024/02/03 05:30:14;;;;;;;8.32;3.42;;;11.00;56.20;;;;;;4989567;28;20092;-61
2024/02/03 05:32:44;;;;;;;8.98;2.88;;;11.00;56.10;;;;;;4983335;28;20106;-58
2024/02/03 05:35:13;;;;;;;15.80;4.07;;;10.90;56.00;;;;;;4997957;28;20060;-60
2024/02/03 05:37:41;;;;;;;5.95;2.20;;;10.80;56.00;;;;;;4990495;28;20061;-60
2024/02/03 05:40:11;;;;;;;8.68;3.78;;;10.70;56.00;;;;;;4993391;28;20123;-61
2024/02/03 05:42:39;;;;;;;12.43;2.67;;;10.60;56.10;;;;;;4998195;28;20056;-61
2024/02/03 05:45:08;;;;;;;12.02;3.05;;;10.60;56.20;;;;;;5006232;28;20085;-60
2024/02/03 05:47:37;;;;;;;5.82;2.20;;;10.50;56.20;;;;;;4989704;28;20060;-60
2024/02/03 05:50:09;;;;;;;7.13;3.22;;;10.40;56.30;;;;;;5002594;28;20060;-60
2024/02/03 05:52:37;;;;;;;5.90;3.20;;;10.40;56.70;;;;;;4994162;28;20053;-60
2024/02/03 05:55:07;;;;;;;8.40;3.13;;;10.30;56.40;;;;;;4987404;28;20140;-58
2024/02/03 05:57:35;;;;;;;11.63;2.83;;;10.30;56.50;;;;;;4987106;28;20068;-58
2024/02/03 06:00:05;;;;;;;5.47;2.85;;;10.30;56.50;;;;;;4974657;28;20053;-60
2024/02/03 06:02:37;;;;;;;6.35;2.85;;;10.30;56.50;;;;;;4962973;28;20463;-60
2024/02/03 06:05:07;;;;;;;6.15;3.20;;;10.30;57.10;;;;;;4972268;28;20071;-58
2024/02/03 06:07:36;;;;;;;4.75;2.35;;;10.30;56.50;;;;;;4990658;28;20792;-59
2024/02/03 06:10:06;;;;;;;7.63;2.67;;;10.30;56.50;;;;;;4998897;28;20049;-60
2024/02/03 06:12:34;;;;;;;14.88;3.17;;;10.30;56.50;;;;;;4983076;28;20411;-59
2024/02/03 06:15:03;;;;;;;6.30;2.95;;;10.30;56.60;;;;;;4995519;28;20427;-60
2024/02/03 06:17:31;;;;;;;6.28;3.45;;;10.30;56.60;;;;;;4996163;28;20069;-58
2024/02/03 06:19:58;;;;;;;10.25;3.47;;;10.20;56.60;;;;;;4996259;28;20384;-59
2024/02/03 06:22:29;;;;;;;9.45;3.50;;;10.20;56.60;;;;;;4997039;28;20063;-59
2024/02/03 06:24:58;;;;;;;12.65;4.18;;;10.20;56.60;;;;;;4988427;28;20045;-59
2024/02/03 06:27:26;;;;;;;7.72;3.20;;;10.20;56.60;;;;;;4985647;28;20071;-60
2024/02/03 06:29:55;;;;;;;6.97;4.18;;;10.20;56.60;;;;;;4992576;28;20057;-62
2024/02/03 06:32:23;;;;;;;11.07;4.80;;;10.20;56.60;;;;;;4992131;28;20119;-59
2024/02/03 06:34:52;;;;;;;13.07;4.18;;;10.20;56.70;;;;;;4982402;28;21022;-60
2024/02/03 06:37:20;;;;;;;11.38;3.75;;;10.10;56.70;;;;;;4991980;28;20393;-61
2024/02/03 06:39:50;;;;;;;9.50;3.58;;;10.10;56.70;;;;;;4988194;28;20064;-58
2024/02/03 06:42:19;;;;;;;6.65;3.28;;;10.10;56.80;;;;;;4991426;28;20319;-61
2024/02/03 06:44:47;;;;;;;20.98;4.47;;;10.10;56.80;;;;;;5015149;28;20057;-59
2024/02/03 06:47:18;;;;;;;8.98;5.07;;;10.00;56.70;;;;;;5013247;28;20052;-60
2024/02/03 06:49:47;;;;;;;31.92;4.03;;;10.00;56.70;;;;;;5020883;28;20111;-59
2024/02/03 06:52:15;;;;;;;4.57;2.92;;;10.00;56.80;;;;;;5013343;28;20061;-60
2024/02/03 06:54:44;;;;;;;6.57;3.63;;;10.00;56.90;;;;;;5013341;28;20056;-60
2024/02/03 06:57:14;;;;;;;9.88;3.05;;;10.00;56.80;;;;;;4981455;28;20142;-60
2024/02/03 06:59:42;;;;;;;7.60;3.80;;;9.90;56.80;;;;;;4973957;28;20052;-60
2024/02/03 07:02:10;;;;;;;5.28;3.28;;;9.90;56.80;;;;;;4955605;28;20337;-59
2024/02/03 07:04:39;;;;;;;13.35;5.40;;;10.00;56.90;;;;;;5008358;28;20079;-59
2024/02/03 07:07:08;;;;;;;19.50;3.75;;;10.10;57.00;;;;;;4992608;28;20068;-60
2024/02/03 07:09:37;;;;;;;10.50;3.40;;;10.10;56.70;;;;;;5005443;28;20053;-60
2024/02/03 07:12:06;;;;;;;18.83;5.90;;;10.20;56.80;;;;;;4990924;28;20094;-60
2024/02/03 07:14:37;;;;;;;12.35;5.55;;;10.20;56.70;;;;;;4987063;28;20111;-59
2024/02/03 07:17:05;;;;;;;5.93;3.45;;;10.30;56.70;;;;;;4988076;28;20169;-60
2024/02/03 07:19:34;;;;;;;8.82;4.53;;;10.30;56.60;;;;;;4985100;28;20132;-59
2024/02/03 07:22:02;;;;;;;9.05;3.72;;;10.30;56.50;;;;;;4987908;28;20052;-60
2024/02/03 07:24:32;;;;;;;10.00;3.95;;;10.30;56.50;;;;;;4989378;28;20215;-60
2024/02/03 07:27:01;;;;;;;22.38;4.78;;;10.30;56.50;;;;;;4992101;28;20052;-60
2024/02/03 07:29:29;;;;;;;14.18;3.90;;;10.30;56.70;;;;;;4989219;28;20060;-63
2024/02/03 07:32:02;;;;;;;25.05;3.92;;;10.30;56.50;;;;;;4991071;28;20125;-60
2024/02/03 07:34:30;;;;;;;10.73;4.25;;;10.40;56.50;;;;;;4994492;28;20057;-61
2024/02/03 07:37:00;;;;;;;9.65;4.35;;;10.40;56.50;;;;;;5021398;28;20644;-61
2024/02/03 07:39:28;;;;;;;13.05;5.32;;;10.30;56.50;;;;;;5007454;28;20056;-60
2024/02/03 07:41:57;;;;;;;11.88;5.80;;;10.40;56.50;;;;;;5011940;28;20163;-60
2024/02/03 07:44:25;;;;;;;7.85;4.50;;;10.40;56.50;;;;;;5011146;28;20148;-59
2024/02/03 07:46:53;;;;;;;12.15;4.65;;;10.40;56.50;;;;;;5015077;28;20765;-59
2024/02/03 07:49:23;;;;;;;14.25;3.78;;;10.40;57.30;;;;;;5000306;28;21893;-60
2024/02/03 07:51:52;;;;;;;8.55;3.92;;;10.40;56.60;;;;;;5012630;28;20740;-59
2024/02/03 07:54:21;;;;;;;10.75;4.90;;;10.50;56.60;;;;;;4988349;28;20064;-59
2024/02/03 07:56:49;;;;;;;11.43;3.97;;;10.60;56.50;;;;;;4998207;28;20068;-60
2024/02/03 07:59:17;;;;;;;10.35;4.57;;;10.60;56.40;;;;;;4987852;28;20080;-60
2024/02/03 08:01:46;;;;;;;14.05;3.45;;;10.60;56.30;;;;;;4983538;28;20064;-60
2024/02/03 08:04:14;;;;;;;8.32;3.80;;;10.70;56.40;;;;;;4985694;28;20048;-60
2024/02/03 08:06:44;;;;;;;23.15;4.55;;;10.70;56.30;;;;;;4983626;28;20689;-60
2024/02/03 08:09:13;;;;;;;11.82;3.83;;;10.80;56.30;;;;;;4962402;28;20643;-60
2024/02/03 08:11:42;;;;;;;12.00;4.55;;;10.90;56.30;;;;;;4936984;28;20114;-61
2024/02/03 08:14:14;;;;;;;11.65;4.10;;;11.00;56.20;;;;;;4942097;28;20499;-59
2024/02/03 08:16:43;;;;;;;8.73;3.85;;;11.00;56.10;;;;;;4982307;28;20140;-60
2024/02/03 08:19:11;;;;;;;11.27;5.43;;;11.20;56.30;;;;;;5013527;28;20667;-63
2024/02/03 08:21:40;;;;;;;24.80;4.88;;;11.30;56.40;;;;;;5000547;28;20137;-61
2024/02/03 08:24:10;;;;;;;15.13;4.07;;;11.40;56.20;;;;;;5011736;28;20055;-60
2024/02/03 08:26:38;;;;;;;13.63;4.47;;;11.60;56.20;;;;;;5011964;28;20187;-59
2024/02/03 08:29:11;;;;;;;11.13;5.50;;;11.70;56.10;;;;;;5006605;28;20144;-61
2024/02/03 08:31:39;;;;;;;13.38;5.32;;;12.00;56.10;;;;;;5017997;28;20048;-64
2024/02/03 08:34:08;;;;;;;15.73;4.75;;;12.20;56.10;;;;;;5010597;28;20081;-56
2024/02/03 08:36:36;;;;;;;14.50;4.72;;;12.50;56.60;;;;;;5038479;28;20053;-74
2024/02/03 08:39:05;;;;;;;13.18;3.95;;;12.90;56.50;;;;;;5033662;28;20068;-60
2024/02/03 08:41:34;;;;;;;11.40;4.05;;;13.30;55.70;;;;;;5051691;28;20132;-64
2024/02/03 08:44:03;;;;;;;9.63;2.65;;;13.80;55.50;;;;;;5029830;28;20107;-63
2024/02/03 08:46:31;;;;;;;10.25;2.75;;;14.20;55.20;;;;;;5034844;28;20164;-62
2024/02/03 08:48:59;;;;;;;3.60;2.00;;;15.00;55.50;;;;;;5029554;28;20072;-63
2024/02/03 08:51:28;;;;;;;20.08;2.67;;;15.90;55.10;;;;;;5032170;28;20053;-64
2024/02/03 08:53:56;;;;;;;12.52;2.60;;;16.90;54.60;;;;;;5028682;28;20060;-80
2024/02/03 08:56:24;;;;;;;5.22;1.92;;;17.60;53.10;;;;;;5010677;28;20060;-79
2024/02/03 08:58:54;;;;;;;2.95;1.88;;;18.00;52.70;;;;;;5013703;28;20119;-62
2024/02/03 09:01:22;;;;;;;8.07;2.03;;;18.40;52.20;;;;;;5016127;28;20064;-62
2024/02/03 09:03:51;;;;;;;2.45;1.55;;;19.00;52.00;;;;;;5014718;28;20410;-61
2024/02/03 09:06:23;;;;;;;3.95;1.67;;;19.60;51.30;;;;;;5015971;28;20319;-62
2024/02/03 09:08:52;;;;;;;4.85;1.73;;;20.00;50.50;;;;;;5008389;28;20051;-62
2024/02/03 09:11:21;;;;;;;12.88;1.80;;;20.60;50.20;;;;;;5011323;28;20136;-63
2024/02/03 09:13:49;;;;;;;4.05;1.83;;;21.10;49.50;;;;;;5004698;28;20149;-67
2024/02/03 09:16:19;;;;;;;7.20;1.60;;;21.60;49.00;;;;;;5009982;28;20530;-61
2024/02/03 09:18:47;;;;;;;7.43;2.08;;;22.00;48.20;;;;;;5007706;28;20133;-62
2024/02/03 09:21:16;;;;;;;12.38;2.20;;;22.60;47.80;;;;;;5004762;28;20049;-62
2024/02/03 09:23:47;;;;;;;7.18;2.40;;;23.00;47.20;;;;;;5015086;28;20644;-61
2024/02/03 09:26:16;;;;;;;6.03;1.88;;;23.60;46.70;;;;;;5011192;28;20071;-63
2024/02/03 09:28:45;;;;;;;4.32;1.70;;;24.00;45.90;;;;;;5014041;28;20383;-61
2024/02/03 09:31:20;;;;;;;2.78;1.60;;;24.50;45.50;;;;;;4994539;28;20677;-62
2024/02/03 09:33:49;;;;;;;1.75;1.20;;;25.00;44.40;;;;;;4968200;28;20351;-63
2024/02/03 09:36:18;;;;;;;16.75;1.65;;;24.70;43.70;;;;;;4984141;28;20061;-63
2024/02/03 09:38:47;;;;;;;3.70;1.70;;;24.10;43.50;;;;;;4991820;28;20692;-67
2024/02/03 09:41:16;;;;;;;1.67;1.15;;;23.60;43.80;;;;;;5019383;28;20072;-63
2024/02/03 09:43:44;;;;;;;6.18;1.52;;;23.10;43.90;;;;;;5026694;28;20995;-75
2024/02/03 09:46:15;;;;;;;5.65;1.85;;;22.80;44.20;;;;;;5029408;28;20161;-62
2024/02/03 09:48:45;;;;;;;2.10;1.38;;;22.70;44.80;;;;;;5030247;28;20132;-63
2024/02/03 09:51:14;;;;;;;2.75;1.80;;;22.80;44.30;;;;;;5006101;28;20148;-62
2024/02/03 09:53:44;;;;;;;5.82;1.17;;;23.30;45.00;;;;;;4971902;28;20056;-60
2024/02/03 09:56:13;;;;;;;3.75;1.83;;;24.30;44.40;;;;;;4968879;28;20054;-61
2024/02/03 09:58:41;;;;;;;2.13;1.35;;;25.50;43.40;;;;;;4972553;28;20362;-63
2024/02/03 10:01:11;;;;;;;1.80;1.23;;;26.10;42.30;;;;;;4991460;28;20159;-69
2024/02/03 10:03:45;;;;;;;6.72;1.80;;;26.30;41.00;;;;;;4973808;28;20060;-70
2024/02/03 10:06:19;;;;;;;2.42;1.30;;;25.70;40.20;;;;;;4968511;28;20064;-61
2024/02/03 10:08:54;;;;;;;10.02;2.63;;;25.10;40.00;;;;;;4972763;28;20136;-63
2024/02/03 10:11:23;;;;;;;11.47;4.47;;;24.50;40.50;;;;;;4964627;28;20048;-61
2024/02/03 10:14:02;;;;;;;9.38;1.75;;;24.20;41.60;;;;;;4979789;28;20053;-62
2024/02/03 10:16:30;;;;;;;3.33;1.45;;;24.70;41.40;;;;;;4989417;28;20057;-66
2024/02/03 10:18:59;;;;;;;3.00;1.40;;;25.00;40.70;;;;;;4988880;28;20056;-66
2024/02/03 10:21:29;;;;;;;3.17;1.40;;;25.10;40.40;;;;;;4972702;28;20498;-63
2024/02/03 10:23:58;;;;;;;2.28;1.25;;;25.20;40.00;;;;;;5026959;28;20149;-64
2024/02/03 10:26:26;;;;;;;2.05;0.88;;;25.50;39.90;;;;;;5030626;28;20045;-61
2024/02/03 10:28:55;;;;;;;1.60;0.90;;;26.10;40.00;;;;;;5039314;28;20051;-63
2024/02/03 10:31:24;;;;;;;2.90;1.25;;;27.30;39.70;;;;;;5030829;28;20124;-64
2024/02/03 10:33:55;;;;;;;1.75;0.68;;;28.30;38.50;;;;;;5030482;28;20052;-62
2024/02/03 10:36:23;;;;;;;2.05;1.30;;;29.20;37.80;;;;;;5031300;28;20049;-64
2024/02/03 10:38:54;;;;;;;1.05;0.75;;;30.10;37.10;;;;;;5031307;28;20468;-62
2024/02/03 10:41:26;;;;;;;1.48;1.02;;;30.60;35.80;;;;;;5025746;28;20394;-65
2024/02/03 10:44:00;;;;;;;5.40;1.10;;;30.60;35.10;;;;;;5027836;28;20140;-63
2024/02/03 10:46:31;;;;;;;3.38;1.20;;;30.30;34.90;;;;;;5036359;28;20064;-63
2024/02/03 10:49:01;;;;;;;2.72;1.08;;;29.70;34.50;;;;;;5018785;28;20077;-62
2024/02/03 10:51:31;;;;;;;3.30;0.80;;;29.40;34.90;;;;;;4981413;28;20377;-62
2024/02/03 10:54:06;;;;;;;2.25;1.23;;;29.00;34.60;;;;;;5022600;28;20188;-62
2024/02/03 10:56:37;;;;;;;2.67;1.10;;;28.70;35.10;;;;;;5009276;28;20115;-78
2024/02/03 10:59:05;;;;;;;5.18;1.20;;;29.00;35.10;;;;;;5008946;28;20100;-79
2024/02/03 11:01:36;;;;;;;3.15;1.20;;;29.40;34.80;;;;;;5006393;28;20053;-62
2024/02/03 11:04:06;;;;;;;2.20;0.95;;;30.00;34.20;;;;;;5007944;28;20126;-63
2024/02/03 11:06:36;;;;;;;3.47;1.50;;;30.40;33.60;;;;;;5004528;28;20154;-62
2024/02/03 11:09:13;;;;;;;1.42;0.93;;;30.60;33.10;;;;;;5006728;28;22460;-62
2024/02/03 11:11:44;;;;;;;2.92;1.55;;;30.10;32.20;;;;;;5004880;28;20123;-62
2024/02/03 11:14:15;;;;;;;2.08;0.98;;;29.50;32.50;;;;;;5011465;28;20049;-62
2024/02/03 11:16:53;;;;;;;2.10;0.80;;;28.80;32.90;;;;;;5002172;28;20057;-61
2024/02/03 11:19:26;;;;;;;2.22;1.20;;;28.30;33.50;;;;;;4999332;28;20107;-62
2024/02/03 11:21:56;;;;;;;10.70;1.75;;;28.00;33.70;;;;;;5007732;28;20041;-62
2024/02/03 11:24:26;;;;;;;1.40;1.00;;;27.80;34.10;;;;;;5008770;28;20133;-63
2024/02/03 11:26:56;;;;;;;1.73;0.88;;;27.60;34.00;;;;;;5006809;28;20053;-63
2024/02/03 11:29:25;;;;;;;3.20;0.95;;;27.20;33.90;;;;;;5029003;28;20534;-63
2024/02/03 11:32:00;;;;;;;2.30;1.00;;;26.50;33.80;;;;;;5025344;28;20045;-62
2024/02/03 11:34:28;;;;;;;7.88;1.52;;;25.70;34.10;;;;;;5025933;28;20075;-61
2024/02/03 11:36:59;;;;;;;1.58;1.30;;;24.90;34.90;;;;;;5001534;28;20297;-62
2024/02/03 11:39:31;;;;;;;3.60;1.80;;;24.30;35.40;;;;;;4909738;28;20053;-63
2024/02/03 11:42:00;;;;;;;5.00;1.25;;;23.60;35.70;;;;;;4931332;28;20103;-62
2024/02/03 11:44:35;;;;;;;4.40;1.17;;;23.10;36.20;;;;;;4929329;28;20361;-61
2024/02/03 11:47:07;;;;;;;1.55;0.90;;;22.70;36.60;;;;;;4906132;28;20061;-63
2024/02/03 11:49:38;;;;;;;2.10;1.02;;;22.30;36.90;;;;;;4912346;28;20406;-63
2024/02/03 11:52:07;;;;;;;11.60;2.05;;;21.90;37.30;;;;;;4923084;28;20048;-63
2024/02/03 11:54:37;;;;;;;2.33;1.30;;;21.40;37.40;;;;;;4919050;28;20464;-62
2024/02/03 11:57:09;;;;;;;2.60;1.25;;;21.20;37.80;;;;;;4931882;28;20830;-62
2024/02/03 11:59:41;;;;;;;1.92;1.35;;;21.10;38.10;;;;;;4900364;28;20067;-65
2024/02/03 12:02:15;;;;;;;7.28;1.52;;;21.10;38.30;;;;;;4914669;28;20776;-62
2024/02/03 12:04:45;;;;;;;2.35;1.20;;;21.20;38.50;;;;;;4935164;28;20343;-62
2024/02/03 12:07:16;;;;;;;1.95;1.05;;;21.30;38.50;;;;;;4926851;28;20511;-62
2024/02/03 12:09:47;;;;;;;5.05;2.67;;;21.30;38.40;;;;;;4911136;28;20216;-67
2024/02/03 12:12:17;;;;;;;2.45;1.50;;;21.30;38.50;;;;;;4923992;28;20148;-63
2024/02/03 12:14:48;;;;;;;3.83;1.40;;;21.20;38.30;;;;;;4910237;28;20413;-62
2024/02/03 12:17:18;;;;;;;1.30;1.02;;;21.00;39.00;;;;;;4920784;28;20049;-62
2024/02/03 12:19:47;;;;;;;3.53;0.85;;;20.70;38.30;;;;;;4905331;28;20409;-62
2024/02/03 12:22:18;;;;;;;1.20;0.90;;;20.30;38.70;;;;;;4934289;28;20423;-63
2024/02/03 12:24:48;;;;;;;9.35;1.50;;;20.00;38.80;;;;;;4919313;28;20678;-61
2024/02/03 12:27:20;;;;;;;2.53;0.95;;;19.70;39.30;;;;;;4912100;28;20534;-60
2024/02/03 12:29:49;;;;;;;3.35;1.67;;;19.40;39.30;;;;;;4923333;28;20426;-63
2024/02/03 12:32:18;;;;;;;3.22;1.60;;;19.30;39.60;;;;;;4905179;28;20157;-62
2024/02/03 12:34:47;;;;;;;3.75;1.83;;;19.10;39.80;;;;;;4938813;28;20353;-62
2024/02/03 12:37:16;;;;;;;4.68;1.80;;;19.00;40.00;;;;;;4953252;28;20353;-62
2024/02/03 12:39:45;;;;;;;3.53;1.35;;;18.90;40.20;;;;;;4936749;28;20497;-62
2024/02/03 12:42:16;;;;;;;2.72;1.38;;;18.80;40.30;;;;;;4931296;28;20064;-61
2024/02/03 12:44:44;;;;;;;4.18;1.60;;;18.80;40.40;;;;;;4911610;28;20205;-61
2024/02/03 12:47:14;;;;;;;5.65;1.40;;;18.70;40.40;;;;;;4930438;28;20735;-61
2024/02/03 12:49:43;;;;;;;3.10;1.35;;;18.70;40.50;;;;;;4923336;28;20254;-62
2024/02/03 12:52:13;;;;;;;4.07;1.50;;;18.70;40.70;;;;;;4926054;28;20500;-62
2024/02/03 12:54:46;;;;;;;1.40;1.00;;;18.60;40.70;;;;;;4927242;28;20249;-61
2024/02/03 12:57:17;;;;;;;2.28;1.30;;;18.60;40.80;;;;;;4916574;28;20090;-61